createdAt,value
2022-08-25T00:00:31.653Z,100477.16
2022-08-25T00:03:06.172Z,100476.12
2022-08-25T00:05:41.022Z,100481.00
2022-08-25T00:08:15.669Z,100468.03
2022-08-25T00:11:03.088Z,100467.59
2022-08-25T00:20:15.489Z,100449.38
2022-08-25T02:31:01.183Z,100460.66
2022-08-25T04:35:09.462Z,100451.09
2022-08-25T05:30:44.474Z,100465.06
2022-08-25T05:33:20.310Z,100465.06
2022-08-25T05:35:54.496Z,100459.84
2022-08-25T05:38:29.386Z,100466.81
2022-08-25T05:41:05.446Z,100470.81
2022-08-25T05:43:41.203Z,100471.19
2022-08-25T05:46:17.805Z,100468.00
2022-08-25T05:48:52.398Z,100459.00
2022-08-25T05:51:26.799Z,100458.94
2022-08-25T05:54:01.315Z,100446.47
2022-08-25T05:56:35.470Z,100444.19
2022-08-25T05:59:10.604Z,100456.25
2022-08-25T06:02:03.254Z,100457.16
2022-08-25T06:04:41.207Z,100469.38
2022-08-25T06:07:15.640Z,100457.28
2022-08-25T06:09:50.133Z,100461.06
2022-08-25T06:12:24.275Z,100457.87
2022-08-25T06:14:58.680Z,100465.91
2022-08-25T06:17:35.510Z,100462.19
2022-08-25T06:20:12.746Z,100464.25
2022-08-25T06:22:47.356Z,100472.41
2022-08-25T06:25:23.695Z,100466.44
2022-08-25T06:27:58.082Z,100476.06
2022-08-25T06:30:32.465Z,100466.28
2022-08-25T06:33:08.220Z,100472.62
2022-08-25T06:35:43.404Z,100480.13
2022-08-25T06:38:17.545Z,100475.44
2022-08-25T06:40:52.531Z,100465.44
2022-08-25T06:43:26.636Z,100475.66
2022-08-25T06:46:08.777Z,100475.50
2022-08-25T06:48:44.532Z,100477.63
2022-08-25T06:51:20.681Z,100474.97
2022-08-25T06:53:55.103Z,100478.09
2022-08-25T06:56:29.655Z,100476.38
2022-08-25T06:59:04.203Z,100472.06
2022-08-25T07:01:39.019Z,100467.25
2022-08-25T07:04:14.620Z,100461.72
2022-08-25T07:06:52.786Z,100471.00
2022-08-25T07:09:27.130Z,100462.06
2022-08-25T07:12:02.653Z,100458.94
2022-08-25T07:14:37.084Z,100461.22
2022-08-25T07:17:12.645Z,100460.03
2022-08-25T07:19:48.222Z,100456.56
2022-08-25T07:22:23.463Z,100461.53
2022-08-25T07:24:57.603Z,100458.94
2022-08-25T07:27:32.166Z,100458.25
2022-08-25T07:30:08.704Z,100471.69
2022-08-25T07:32:45.842Z,100472.44
2022-08-25T07:35:24.177Z,100475.47
2022-08-25T07:38:01.187Z,100470.78
2022-08-25T07:40:43.054Z,100474.00
2022-08-25T07:43:17.702Z,100472.84
2022-08-25T07:45:51.812Z,100471.22
2022-08-25T07:48:26.209Z,100472.66
2022-08-25T07:51:08.093Z,100460.59
2022-08-25T07:53:43.375Z,100474.94
2022-08-25T07:56:18.933Z,100467.31
2022-08-25T07:58:53.541Z,100474.25
2022-08-25T08:01:27.886Z,100469.66
2022-08-25T08:04:03.659Z,100469.22
2022-08-25T08:06:41.596Z,100472.16
2022-08-25T08:09:18.597Z,100473.75
2022-08-25T08:11:54.470Z,100467.81
2022-08-25T08:14:29.200Z,100469.97
2022-08-25T08:17:07.519Z,100477.72
2022-08-25T08:19:45.125Z,100461.00
2022-08-25T08:22:21.406Z,100471.91
2022-08-25T08:24:56.961Z,100474.16
2022-08-25T08:27:31.161Z,100476.69
2022-08-25T08:30:07.713Z,100475.50
2022-08-25T08:33:06.413Z,100474.06
2022-08-25T08:35:36.250Z,100469.97
2022-08-25T08:38:17.341Z,100473.81
2022-08-25T08:41:23.136Z,100472.59
2022-08-25T08:44:07.507Z,100465.19
2022-08-25T08:46:59.216Z,100452.97
2022-08-25T08:49:42.185Z,100451.69
2022-08-25T08:52:22.631Z,100454.88
2022-08-25T08:55:06.627Z,100452.81
2022-08-25T08:57:46.607Z,100444.53
2022-08-25T09:00:22.654Z,100440.63
2022-08-25T09:03:06.217Z,100437.03
2022-08-25T09:05:47.372Z,100439.12
2022-08-25T09:08:21.963Z,100440.03
2022-08-25T09:11:04.840Z,100430.47
2022-08-25T09:14:01.724Z,100427.81
2022-08-25T09:16:56.581Z,100424.25
2022-08-25T09:20:18.925Z,100416.53
2022-08-25T09:23:03.441Z,100420.00
2022-08-25T09:25:54.083Z,100416.53
2022-08-25T09:28:35.814Z,100418.84
2022-08-25T09:31:18.915Z,100415.97
2022-08-25T09:33:57.458Z,100415.31
2022-08-25T09:36:37.423Z,100405.97
2022-08-25T09:39:12.347Z,100410.94
2022-08-25T09:41:51.229Z,100408.84
2022-08-25T09:44:31.927Z,100415.22
2022-08-25T09:47:22.229Z,100396.91
2022-08-25T09:50:00.842Z,100399.59
2022-08-25T09:52:38.014Z,100397.94
2022-08-25T09:55:34.422Z,100399.25
2022-08-25T09:58:19.346Z,100398.75
2022-08-25T10:01:14.395Z,100399.13
2022-08-25T10:04:03.310Z,100396.19
2022-08-25T10:06:48.600Z,100400.91
2022-08-25T10:09:29.531Z,100392.41
2022-08-25T10:12:16.385Z,100387.41
2022-08-25T10:14:51.319Z,100388.28
2022-08-25T10:17:33.544Z,100383.84
2022-08-25T10:20:18.425Z,100376.75
2022-08-25T10:22:54.025Z,100384.91
2022-08-25T10:25:30.978Z,100370.91
2022-08-25T10:28:12.514Z,100370.31
2022-08-25T10:30:58.728Z,100365.72
2022-08-25T10:33:46.351Z,100365.13
2022-08-25T10:36:34.362Z,100362.25
2022-08-25T10:39:33.795Z,100358.38
2022-08-25T10:42:30.978Z,100351.91
2022-08-25T10:45:44.243Z,100340.91
2022-08-25T10:48:44.703Z,100346.38
2022-08-25T10:51:40.217Z,100347.88
2022-08-25T10:54:26.491Z,100345.13
2022-08-25T10:57:10.177Z,100346.06
2022-08-25T10:59:58.961Z,100343.03
2022-08-25T11:02:59.698Z,100334.91
2022-08-25T11:05:41.839Z,100334.12
2022-08-25T11:08:22.626Z,100313.59
2022-08-25T11:11:03.772Z,100305.63
2022-08-25T11:13:45.671Z,100308.84
2022-08-25T11:16:38.102Z,100304.03
2022-08-25T11:19:20.238Z,100304.03
2022-08-25T11:22:13.663Z,100299.50
2022-08-25T11:25:01.146Z,100289.50
2022-08-25T11:27:45.559Z,100290.09
2022-08-25T11:30:20.540Z,100290.53
2022-08-25T11:32:56.427Z,100285.41
2022-08-25T11:35:36.412Z,100283.53
2022-08-25T11:38:29.349Z,100275.31
2022-08-25T11:41:19.036Z,100281.59
2022-08-25T11:44:17.189Z,100285.34
2022-08-25T11:47:14.727Z,100277.28
2022-08-25T11:50:01.198Z,100270.56
2022-08-25T11:52:56.414Z,100271.88
2022-08-25T11:55:48.799Z,100261.16
2022-08-25T11:58:45.246Z,100259.47
2022-08-25T12:01:53.334Z,100266.06
2022-08-25T12:04:44.699Z,100257.53
2022-08-25T12:07:25.760Z,100255.28
2022-08-25T12:10:22.668Z,100253.03
2022-08-25T12:13:10.460Z,100251.38
2022-08-25T12:16:02.356Z,100246.28
2022-08-25T12:18:46.313Z,100243.69
2022-08-25T12:21:36.121Z,100241.59
2022-08-25T12:24:14.194Z,100235.88
2022-08-25T12:26:57.791Z,100235.50
2022-08-25T12:29:39.489Z,100231.22
2022-08-25T12:32:33.273Z,100231.44
2022-08-25T12:35:30.634Z,100236.47
2022-08-25T12:38:10.119Z,100233.16
2022-08-25T12:41:01.663Z,100225.94
2022-08-25T12:43:38.500Z,100242.34
2022-08-25T12:46:37.119Z,100235.44
2022-08-25T12:49:31.864Z,100219.87
2022-08-25T12:52:09.226Z,100224.34
2022-08-25T12:54:52.794Z,100227.34
2022-08-25T12:57:40.516Z,100221.38
2022-08-25T13:00:20.312Z,100224.97
2022-08-25T13:03:26.095Z,100219.47
2022-08-25T13:06:29.304Z,100220.37
2022-08-25T13:09:34.403Z,100219.38
2022-08-25T13:12:17.211Z,100214.78
2022-08-25T13:14:55.449Z,100202.78
2022-08-25T13:17:33.795Z,100199.72
2022-08-25T13:20:21.587Z,100194.69
2022-08-25T13:23:01.557Z,100196.44
2022-08-25T13:25:47.590Z,100191.59
2022-08-25T13:28:29.114Z,100195.56
2022-08-25T13:31:10.985Z,100196.16
2022-08-25T13:33:54.746Z,100199.13
2022-08-25T13:36:57.852Z,100200.00
2022-08-25T13:39:53.131Z,100200.25
2022-08-25T13:42:29.467Z,100193.25
2022-08-25T13:45:05.700Z,100197.97
2022-08-25T13:47:43.809Z,100196.00
2022-08-25T13:50:30.269Z,100198.88
2022-08-25T13:53:11.904Z,100201.41
2022-08-25T13:55:53.242Z,100193.09
2022-08-25T13:58:39.123Z,100189.50
2022-08-25T14:01:47.141Z,100196.06
2022-08-25T14:04:27.976Z,100186.91
2022-08-25T14:07:26.684Z,100181.09
2022-08-25T14:10:11.738Z,100177.25
2022-08-25T14:12:48.309Z,100173.63
2022-08-25T14:15:33.464Z,100177.41
2022-08-25T14:18:13.734Z,100173.34
2022-08-25T14:20:52.847Z,100168.53
2022-08-25T14:23:31.956Z,100168.09
2022-08-25T14:26:07.965Z,100168.41
2022-08-25T14:28:42.102Z,100168.38
2022-08-25T14:31:29.096Z,100163.66
2022-08-25T14:34:05.594Z,100163.53
2022-08-25T14:36:40.378Z,100166.78
2022-08-25T14:39:14.522Z,100158.28
2022-08-25T14:41:53.118Z,100168.69
2022-08-25T14:44:28.054Z,100148.87
2022-08-25T14:47:03.279Z,100168.28
2022-08-25T14:49:45.954Z,100165.59
2022-08-25T14:52:23.559Z,100155.31
2022-08-25T14:54:58.374Z,100157.41
2022-08-25T14:57:34.230Z,100153.81
2022-08-25T15:00:10.954Z,100150.97
2022-08-25T15:02:49.196Z,100154.84
2022-08-25T15:05:28.453Z,100154.72
2022-08-25T15:08:20.367Z,100160.50
2022-08-25T15:10:54.931Z,100149.50
2022-08-25T15:13:30.827Z,100147.84
2022-08-25T15:16:05.985Z,100154.25
2022-08-25T15:18:40.505Z,100159.03
2022-08-25T15:21:16.173Z,100157.09
2022-08-25T15:23:53.154Z,100155.00
2022-08-25T15:26:31.287Z,100150.09
2022-08-25T15:29:08.175Z,100143.81
2022-08-25T15:31:43.605Z,100140.81
2022-08-25T15:34:18.047Z,100144.84
2022-08-25T15:36:52.990Z,100135.47
2022-08-25T15:39:27.651Z,100135.47
2022-08-25T15:42:02.676Z,100135.31
2022-08-25T15:44:40.072Z,100128.00
2022-08-25T15:47:15.522Z,100130.69
2022-08-25T15:49:52.683Z,100129.78
2022-08-25T15:52:44.601Z,100119.66
2022-08-25T15:55:21.423Z,100112.78
2022-08-25T15:57:55.595Z,100111.44
2022-08-25T16:00:31.787Z,100102.06
2022-08-25T16:03:07.980Z,100111.16
2022-08-25T16:05:48.741Z,100109.53
2022-08-25T16:08:23.252Z,100110.88
2022-08-25T16:10:58.559Z,100108.63
2022-08-25T16:13:33.357Z,100109.50
2022-08-25T16:16:09.361Z,100105.63
2022-08-25T16:18:45.127Z,100107.25
2022-08-25T16:21:25.608Z,100109.50
2022-08-25T16:24:05.507Z,100104.84
2022-08-25T16:26:47.965Z,100099.78
2022-08-25T16:29:22.797Z,100109.31
2022-08-25T16:31:59.224Z,100107.34
2022-08-25T16:34:38.592Z,100103.94
2022-08-25T16:37:13.879Z,100108.09
2022-08-25T16:39:53.784Z,100107.16
2022-08-25T16:42:30.013Z,100104.47
2022-08-25T16:45:05.321Z,100103.75
2022-08-25T16:47:42.682Z,100107.03
2022-08-25T16:50:17.416Z,100103.12
2022-08-25T16:53:09.391Z,100110.56
2022-08-25T16:55:44.339Z,100102.88
2022-08-25T16:58:18.590Z,100107.19
2022-08-25T17:00:53.761Z,100102.75
2022-08-25T17:03:34.127Z,100099.97
2022-08-25T17:06:09.206Z,100100.31
2022-08-25T17:08:43.864Z,100101.91
2022-08-25T17:11:20.656Z,100092.13
2022-08-25T17:13:57.054Z,100099.03
2022-08-25T17:16:35.654Z,100107.28
2022-08-25T17:19:13.882Z,100110.41
2022-08-25T17:21:48.359Z,100110.75
2022-08-25T17:24:29.373Z,100107.25
2022-08-25T17:27:06.640Z,100106.00
2022-08-25T17:29:43.513Z,100107.91
2022-08-25T17:32:18.215Z,100103.91
2022-08-25T17:34:53.657Z,100106.31
2022-08-25T17:37:28.216Z,100108.78
2022-08-25T17:40:03.637Z,100116.19
2022-08-25T17:42:38.220Z,100119.25
2022-08-25T17:45:12.451Z,100121.50
2022-08-25T17:47:46.946Z,100122.37
2022-08-25T17:50:22.424Z,100131.87
2022-08-25T17:52:56.984Z,100128.13
2022-08-25T17:55:31.917Z,100130.09
2022-08-25T17:58:06.771Z,100126.09
2022-08-25T18:00:43.773Z,100129.88
2022-08-25T18:03:19.464Z,100136.44
2022-08-25T18:05:55.490Z,100144.59
2022-08-25T18:08:34.898Z,100137.28
2022-08-25T18:11:10.235Z,100138.59
2022-08-25T18:13:46.331Z,100136.72
2022-08-25T18:16:21.400Z,100132.78
2022-08-25T18:18:57.193Z,100134.47
2022-08-25T18:21:32.784Z,100134.50
2022-08-25T18:24:08.116Z,100131.94
2022-08-25T18:26:42.815Z,100135.50
2022-08-25T18:29:17.374Z,100138.66
2022-08-25T18:31:53.651Z,100143.75
2022-08-25T18:34:31.649Z,100141.72
2022-08-25T18:37:21.079Z,100141.78
2022-08-25T18:40:13.518Z,100139.94
2022-08-25T18:42:48.244Z,100151.53
2022-08-25T18:45:24.654Z,100144.41
2022-08-25T18:48:01.224Z,100152.72
2022-08-25T18:50:40.411Z,100156.09
2022-08-25T18:53:16.456Z,100155.50
2022-08-25T18:55:54.533Z,100156.28
2022-08-25T18:58:29.142Z,100152.28
2022-08-25T19:01:04.437Z,100156.88
2022-08-25T19:03:38.904Z,100154.97
2022-08-25T19:06:13.501Z,100153.88
2022-08-25T19:08:49.475Z,100159.69
2022-08-25T19:11:24.693Z,100153.69
2022-08-25T19:13:59.801Z,100158.91
2022-08-25T19:16:38.341Z,100152.34
2022-08-25T19:19:14.403Z,100159.50
2022-08-25T19:21:49.053Z,100158.19
2022-08-25T19:24:26.882Z,100153.13
2022-08-25T19:27:02.808Z,100151.63
2022-08-25T19:29:36.971Z,100153.88
2022-08-25T19:32:12.647Z,100143.00
2022-08-25T19:34:47.621Z,100144.88
2022-08-25T19:37:28.540Z,100145.63
2022-08-25T19:40:05.756Z,100140.38
2022-08-25T19:42:40.822Z,100156.16
2022-08-25T19:45:15.732Z,100156.91
2022-08-25T19:47:51.847Z,100144.88
2022-08-25T19:50:27.891Z,100163.47
2022-08-25T19:53:02.477Z,100164.78
2022-08-25T19:55:38.799Z,100165.91
2022-08-25T19:58:16.212Z,100167.41
2022-08-25T20:00:52.177Z,100161.59
2022-08-25T20:03:26.605Z,100162.56
2022-08-25T20:06:03.299Z,100162.16
2022-08-25T20:08:38.832Z,100163.66
2022-08-25T20:11:15.489Z,100165.91
2022-08-25T20:13:50.228Z,100158.41
2022-08-25T20:16:24.910Z,100160.25
2022-08-25T20:19:00.151Z,100161.19
2022-08-25T20:21:37.866Z,100154.81
2022-08-25T20:24:30.894Z,100148.63
2022-08-25T20:27:06.833Z,100156.88
2022-08-25T20:29:41.563Z,100149.94
2022-08-25T20:32:19.830Z,100144.88
2022-08-25T20:34:55.842Z,100145.41
2022-08-25T20:37:30.511Z,100152.16
2022-08-25T20:40:07.227Z,100146.00
2022-08-25T20:42:43.683Z,100144.31
2022-08-25T20:45:21.905Z,100148.97
2022-08-25T20:47:57.431Z,100151.63
2022-08-25T20:50:33.701Z,100161.75
2022-08-25T20:53:10.264Z,100155.16
2022-08-25T20:55:48.421Z,100153.84
2022-08-25T20:58:24.572Z,100157.78
2022-08-25T21:01:00.952Z,100150.13
2022-08-25T21:03:35.131Z,100151.22
2022-08-25T21:06:12.316Z,100157.41
2022-08-25T21:08:51.154Z,100153.84
2022-08-25T21:11:26.770Z,100157.59
2022-08-25T21:14:02.938Z,100158.34
2022-08-25T21:16:42.096Z,100158.75
2022-08-25T21:19:33.960Z,100159.63
2022-08-25T21:22:08.733Z,100148.91
2022-08-25T21:24:45.472Z,100152.28
2022-08-25T21:27:20.233Z,100152.69
2022-08-25T21:29:59.796Z,100142.41
2022-08-25T21:32:34.671Z,100146.31
2022-08-25T21:35:09.248Z,100149.66
2022-08-25T21:37:45.031Z,100142.94
2022-08-25T21:40:20.067Z,100144.81
2022-08-25T21:42:55.525Z,100152.53
2022-08-25T21:45:35.964Z,100156.06
2022-08-25T21:48:11.552Z,100145.19
2022-08-25T21:50:45.860Z,100162.78
2022-08-25T21:53:20.325Z,100154.34
2022-08-25T21:55:54.513Z,100142.53
2022-08-25T21:58:28.866Z,100148.16
2022-08-25T22:01:10.948Z,100150.22
2022-08-25T22:03:47.256Z,100142.75
2022-08-25T22:06:22.671Z,100141.94
2022-08-25T22:08:57.298Z,100134.47
2022-08-25T22:11:33.911Z,100131.47
2022-08-25T22:14:11.623Z,100140.94
2022-08-25T22:16:47.389Z,100128.66
2022-08-25T22:19:22.771Z,100133.19
2022-08-25T22:21:57.683Z,100137.34
2022-08-25T22:24:32.143Z,100139.59
2022-08-25T22:27:15.484Z,100138.84
2022-08-25T22:29:51.764Z,100134.94
2022-08-25T22:32:27.679Z,100125.97
2022-08-25T22:35:02.133Z,100128.00
2022-08-25T22:37:36.411Z,100123.28
2022-08-25T22:40:12.713Z,100117.53
2022-08-25T22:42:48.210Z,100113.91
2022-08-25T22:45:22.736Z,100114.81
2022-08-25T22:47:59.215Z,100115.34
2022-08-25T22:50:36.400Z,100112.06
2022-08-25T22:53:10.479Z,100112.22
2022-08-25T22:55:45.039Z,100105.28
2022-08-25T22:58:20.934Z,100109.19
2022-08-25T23:00:55.396Z,100102.25
2022-08-25T23:03:30.947Z,100103.00
2022-08-25T23:06:05.616Z,100104.66
2022-08-25T23:08:41.031Z,100105.56
2022-08-25T23:11:17.334Z,100098.75
2022-08-25T23:13:52.132Z,100098.44
2022-08-25T23:16:31.747Z,100101.44
2022-08-25T23:19:07.329Z,100089.44
2022-08-25T23:21:59.314Z,100095.44
2022-08-25T23:24:33.533Z,100090.53
2022-08-25T23:27:10.122Z,100102.59
2022-08-25T23:29:47.308Z,100093.63
2022-08-25T23:32:21.709Z,100096.50
2022-08-25T23:34:57.329Z,100088.28
2022-08-25T23:37:31.757Z,100090.94
2022-08-25T23:40:07.691Z,100094.66
2022-08-25T23:42:42.271Z,100096.91
2022-08-25T23:45:17.181Z,100088.63
2022-08-25T23:47:51.646Z,100087.50
2022-08-25T23:50:27.508Z,100083.44
2022-08-25T23:53:02.015Z,100090.00
2022-08-25T23:55:36.164Z,100080.25
2022-08-25T23:58:10.805Z,100090.91
